Terminal Aerodrome Forecast
Issued by NWS Central Illinois

Home | Current Version | Previous Version | Text Only | Print | Product List | Glossary On
Versions: 1 2 3 4 5 6 7 8 9 10 11 12 13 14 15 16 17 18 19 20 21 22 23 24 25 26 27 28 29 30 31 32 33 34 35 36 37 38 39
808
FTUS43 KILX 161838 AAA
TAFPIA
TAF AMD
KPIA 161838Z 1619/1718 08008KT 3/4SM BR VCSH OVC003
      TEMPO 1619/1620 1/4SM -RA FG VV002
     FM162000 11007KT 3/4SM -RA BR OVC003
      TEMPO 1620/1622 1 1/2SM -RA BR OVC005
     FM162200 12008KT 1 1/2SM -RA BR OVC004
     FM170200 15006KT 1/2SM -RA FG OVC003
     FM170700 23008KT 2SM BR VCSH OVC006
     FM171300 26010KT 4SM BR OVC010=

USA.gov is the U.S. government's official web portal to all federal, state and local government web resources and services.